Terminal Aerodrome Forecast
Issued by NWS Portland, ME

Home | Current Version | Previous Version | Text Only | Print | Product List | Glossary On
Versions: 1 2 3 4 5 6 7 8 9 10 11 12 13 14 15 16 17 18 19
980
FTUS41 KGYX 242320
TAFPWM
TAF
KPWM 242320Z 2500/2524 36005KT P6SM FEW250
     FM251200 02007KT P6SM BKN050 OVC100
     FM251600 03008KT 1SM -SN OVC015
     FM251800 03009KT 1/2SM SN OVC007
     FM252100 10008KT 2SM -RA OVC007=

USA.gov is the U.S. government's official web portal to all federal, state and local government web resources and services.